地図

経路データ

SID SEASON NUMBER BASIN SUBBASIN NAME ISO_TIME NATURE LAT LON WMO_WIND WMO_PRES WMO_AGENCY TRACK_TYPE DIST2LAND LANDFALL IFLAG USA_AGENCY USA_ATCF_ID USA_LAT USA_LON USA_RECORD USA_STATUS USA_WIND USA_PRES USA_SSHS USA_R34_NE USA_R34_SE USA_R34_SW USA_R34_NW USA_R50_NE USA_R50_SE USA_R50_SW USA_R50_NW USA_R64_NE USA_R64_SE USA_R64_SW USA_R64_NW USA_POCI USA_ROCI USA_RMW USA_EYE TOKYO_LAT TOKYO_LON TOKYO_GRADE TOKYO_WIND TOKYO_PRES TOKYO_R50_DIR TOKYO_R50_LONG TOKYO_R50_SHORT TOKYO_R30_DIR TOKYO_R30_LONG TOKYO_R30_SHORT TOKYO_LAND CMA_LAT CMA_LON CMA_CAT CMA_WIND CMA_PRES HKO_LAT HKO_LON HKO_CAT HKO_WIND HKO_PRES NEWDELHI_LAT NEWDELHI_LON NEWDELHI_GRADE NEWDELHI_WIND NEWDELHI_PRES NEWDELHI_CI NEWDELHI_DP NEWDELHI_POCI REUNION_LAT REUNION_LON REUNION_TYPE REUNION_WIND REUNION_PRES REUNION_TNUM REUNION_CI REUNION_RMW REUNION_R34_NE REUNION_R34_SE REUNION_R34_SW REUNION_R34_NW REUNION_R50_NE REUNION_R50_SE REUNION_R50_SW REUNION_R50_NW REUNION_R64_NE REUNION_R64_SE REUNION_R64_SW REUNION_R64_NW BOM_LAT BOM_LON BOM_TYPE BOM_WIND BOM_PRES BOM_TNUM BOM_CI BOM_RMW BOM_R34_NE BOM_R34_SE BOM_R34_SW BOM_R34_NW BOM_R50_NE BOM_R50_SE BOM_R50_SW BOM_R50_NW BOM_R64_NE BOM_R64_SE BOM_R64_SW BOM_R64_NW BOM_ROCI BOM_POCI BOM_EYE BOM_POS_METHOD BOM_PRES_METHOD NADI_LAT NADI_LON NADI_CAT NADI_WIND NADI_PRES WELLINGTON_LAT WELLINGTON_LON WELLINGTON_WIND WELLINGTON_PRES DS824_LAT DS824_LON DS824_STAGE DS824_WIND DS824_PRES TD9636_LAT TD9636_LON TD9636_STAGE TD9636_WIND TD9636_PRES TD9635_LAT TD9635_LON TD9635_WIND TD9635_PRES TD9635_ROCI NEUMANN_LAT NEUMANN_LON NEUMANN_CLASS NEUMANN_WIND NEUMANN_PRES MLC_LAT MLC_LON MLC_CLASS MLC_WIND MLC_PRES USA_GUST BOM_GUST BOM_GUST_PER REUNION_GUST REUNION_GUST_PER USA_SEAHGT USA_SEARAD_NE USA_SEARAD_SE USA_SEARAD_SW USA_SEARAD_NW STORM_SPEED STORM_DIR
1859021S14077 1859 1 SI MM NOT_NAMED 1859-01-21 06:00:00 NR -14.2000 77.3000 main 2178 2148 __________O___ -1 -14.2000 77.3000 7 6 269
1859021S14077 1859 1 SI MM NOT_NAMED 1859-01-21 09:00:00 NR -14.2050 76.9733 main 2148 2118 __________P___ -1 -14.2050 76.9733 7 6 268
1859021S14077 1859 1 SI MM NOT_NAMED 1859-01-21 12:00:00 NR -14.2179 76.6474 main 2108 2078 __________P___ -1 -14.2179 76.6474 7 6 266
1859021S14077 1859 1 SI MM NOT_NAMED 1859-01-21 15:00:00 NR -14.2468 76.3227 main 2078 2044 __________P___ -1 -14.2468 76.3227 7 6 263
1859021S14077 1859 1 SI MM NOT_NAMED 1859-01-21 18:00:00 NR -14.3000 76.0000 main 2044 2009 __________O___ -1 -14.3000 76.0000 7 6 258
1859021S14077 1859 1 SI MM NOT_NAMED 1859-01-21 21:00:00 NR -14.3823 75.6792 main 2009 1975 __________P___ -1 -14.3823 75.6792 7 7 253
1859021S14077 1859 1 SI MM NOT_NAMED 1859-01-22 00:00:00 NR -14.4848 75.3576 main 1975 1941 __________P___ -1 -14.4848 75.3576 7 7 251
1859021S14077 1859 1 SI MM NOT_NAMED 1859-01-22 03:00:00 NR -14.5948 75.0322 main 1931 1897 __________P___ -1 -14.5948 75.0322 7 7 251
1859021S14077 1859 1 SI MM NOT_NAMED 1859-01-22 06:00:00 NR -14.7000 74.7000 main 1897 1863 __________O___ -1 -14.7000 74.7000 7 7 254
1859021S14077 1859 1 SI MM NOT_NAMED 1859-01-22 09:00:00 NR -14.7822 74.3449 main 1853 1819 __________P___ -1 -14.7822 74.3449 7 7 257
1859021S14077 1859 1 SI MM NOT_NAMED 1859-01-22 12:00:00 NR -14.8575 73.9849 main 1819 1789 __________P___ -1 -14.8575 73.9849 7 7 258
1859021S14077 1859 1 SI MM NOT_NAMED 1859-01-22 15:00:00 NR -14.9291 73.6324 main 1779 1745 __________P___ -1 -14.9291 73.6324 7 7 258
1859021S14077 1859 1 SI MM NOT_NAMED 1859-01-22 18:00:00 NR -15.0000 73.3000 main 1745 1711 __________O___ -1 -15.0000 73.3000 7 6 257
1859021S14077 1859 1 SI MM NOT_NAMED 1859-01-22 21:00:00 NR -15.0748 73.0034 main 1711 1681 __________P___ -1 -15.0748 73.0034 7 6 255
1859021S14077 1859 1 SI MM NOT_NAMED 1859-01-23 00:00:00 NR -15.1497 72.7274 main 1681 1657 __________P___ -1 -15.1497 72.7274 7 5 254
1859021S14077 1859 1 SI MM NOT_NAMED 1859-01-23 03:00:00 NR -15.2248 72.4627 main 1657 1623 __________P___ -1 -15.2248 72.4627 7 5 254
1859021S14077 1859 1 SI MM NOT_NAMED 1859-01-23 06:00:00 NR -15.3000 72.2000 main 1623 1589 __________O___ -1 -15.3000 72.2000 7 5 254
1859021S14077 1859 1 SI MM NOT_NAMED 1859-01-23 09:00:00 NR -15.3708 71.9249 main 1589 1569 __________P___ -1 -15.3708 71.9249 7 6 255
1859021S14077 1859 1 SI MM NOT_NAMED 1859-01-23 12:00:00 NR -15.4424 71.6499 main 1559 1535 __________P___ -1 -15.4424 71.6499 7 6 255
1859021S14077 1859 1 SI MM NOT_NAMED 1859-01-23 15:00:00 NR -15.5177 71.3749 main 1535 1501 __________P___ -1 -15.5177 71.3749 7 6 253
1859021S14077 1859 1 SI MM NOT_NAMED 1859-01-23 18:00:00 NR -15.6000 71.1000 main 1501 1477 __________O___ -1 -15.6000 71.1000 7 5 252
1859021S14077 1859 1 SI MM NOT_NAMED 1859-01-23 21:00:00 NR -15.6843 70.8491 main 1467 1443 __________P___ -1 -15.6843 70.8491 7 5 250
1859021S14077 1859 1 SI MM NOT_NAMED 1859-01-24 00:00:00 NR -15.7770 70.5946 main 1443 1409 __________P___ -1 -15.7770 70.5946 7 5 249
1859021S14077 1859 1 SI MM NOT_NAMED 1859-01-24 03:00:00 NR -15.8811 70.3178 main 1409 1375 __________P___ -1 -15.8811 70.3178 7 6 249
1859021S14077 1859 1 SI MM NOT_NAMED 1859-01-24 06:00:00 NR -16.0000 70.0000 main 1375 1331 __________O___ -1 -16.0000 70.0000 7 7 249
1859021S14077 1859 1 SI MM NOT_NAMED 1859-01-24 09:00:00 NR -16.1398 69.6182 main 1331 1283 __________P___ -1 -16.1398 69.6182 7 8 249
1859021S14077 1859 1 SI MM NOT_NAMED 1859-01-24 12:00:00 NR -16.2926 69.1952 main 1283 1239 __________P___ -1 -16.2926 69.1952 7 9 250
1859021S14077 1859 1 SI MM NOT_NAMED 1859-01-24 15:00:00 NR -16.4491 68.7495 main 1230 1182 __________P___ -1 -16.4491 68.7495 7 9 250
1859021S14077 1859 1 SI MM NOT_NAMED 1859-01-24 18:00:00 NR -16.6000 68.3000 main 1182 1138 __________O___ -1 -16.6000 68.3000 7 9 251
1859021S14077 1859 1 SI MM NOT_NAMED 1859-01-24 21:00:00 NR -16.7383 67.8620 main 1138 1090 __________P___ -1 -16.7383 67.8620 7 9 252
1859021S14077 1859 1 SI MM NOT_NAMED 1859-01-25 00:00:00 NR -16.8654 67.4352 main 1080 1037 __________P___ -1 -16.8654 67.4352 7 8 253
1859021S14077 1859 1 SI MM NOT_NAMED 1859-01-25 03:00:00 NR -16.9848 67.0159 main 1037 993 __________P___ -1 -16.9848 67.0159 7 8 254
1859021S14077 1859 1 SI MM NOT_NAMED 1859-01-25 06:00:00 NR -17.1000 66.6000 main 993 __________O___ -1 -17.1000 66.6000 7 8 254

IBTrACS Databaseについて

本データベースは、米国NOAAが公開する1842年以降の世界の熱帯低気圧のベストトラックデータアーカイブInternational Best Track Archive for Climate Stewardship (IBTrACS)を、ウェブで閲覧しやすい形式に変換したものです。

最終更新日:2021-10-21